sensor_id;sensor_type;location;lat;lon;timestamp;P1;durP1;ratioP1;P2;durP2;ratioP2
32637;SDS011;19045;52.268;10.506;2022-07-06T00:02:09;4.13;;;1.13;;
32637;SDS011;19045;52.268;10.506;2022-07-06T00:04:35;4.38;;;1.42;;
32637;SDS011;19045;52.268;10.506;2022-07-06T00:07:02;3.75;;;1.00;;
32637;SDS011;19045;52.268;10.506;2022-07-06T00:09:30;5.28;;;1.23;;
32637;SDS011;19045;52.268;10.506;2022-07-06T00:11:57;3.95;;;1.20;;
32637;SDS011;19045;52.268;10.506;2022-07-06T00:14:24;5.13;;;1.00;;
32637;SDS011;19045;52.268;10.506;2022-07-06T00:16:50;4.13;;;1.13;;
32637;SDS011;19045;52.268;10.506;2022-07-06T00:19:17;3.60;;;0.98;;
32637;SDS011;19045;52.268;10.506;2022-07-06T00:21:44;3.90;;;1.10;;
32637;SDS011;19045;52.268;10.506;2022-07-06T00:24:10;3.83;;;1.00;;
32637;SDS011;19045;52.268;10.506;2022-07-06T00:26:38;2.83;;;1.00;;
32637;SDS011;19045;52.268;10.506;2022-07-06T00:29:05;4.72;;;1.50;;
32637;SDS011;19045;52.268;10.506;2022-07-06T00:31:32;5.90;;;1.13;;
32637;SDS011;19045;52.268;10.506;2022-07-06T00:33:58;2.75;;;1.02;;
32637;SDS011;19045;52.268;10.506;2022-07-06T00:36:25;2.90;;;1.00;;
32637;SDS011;19045;52.268;10.506;2022-07-06T00:38:52;5.03;;;1.05;;
32637;SDS011;19045;52.268;10.506;2022-07-06T00:41:19;3.60;;;1.00;;
32637;SDS011;19045;52.268;10.506;2022-07-06T00:43:47;4.75;;;1.42;;
32637;SDS011;19045;52.268;10.506;2022-07-06T00:46:21;4.05;;;1.10;;
32637;SDS011;19045;52.268;10.506;2022-07-06T00:48:52;4.78;;;1.33;;
32637;SDS011;19045;52.268;10.506;2022-07-06T00:51:19;4.45;;;1.50;;
32637;SDS011;19045;52.268;10.506;2022-07-06T00:53:48;6.78;;;1.60;;
32637;SDS011;19045;52.268;10.506;2022-07-06T00:56:15;3.92;;;1.17;;
32637;SDS011;19045;52.268;10.506;2022-07-06T00:58:42;4.72;;;1.17;;
32637;SDS011;19045;52.268;10.506;2022-07-06T01:01:11;4.35;;;1.45;;
32637;SDS011;19045;52.268;10.506;2022-07-06T01:03:37;6.35;;;1.60;;
32637;SDS011;19045;52.268;10.506;2022-07-06T01:06:04;5.90;;;1.52;;
32637;SDS011;19045;52.268;10.506;2022-07-06T01:08:31;4.78;;;1.38;;
32637;SDS011;19045;52.268;10.506;2022-07-06T01:10:58;4.20;;;1.25;;
32637;SDS011;19045;52.268;10.506;2022-07-06T01:13:25;4.78;;;1.38;;
32637;SDS011;19045;52.268;10.506;2022-07-06T01:15:52;4.35;;;1.25;;
32637;SDS011;19045;52.268;10.506;2022-07-06T01:18:21;5.50;;;1.27;;
32637;SDS011;19045;52.268;10.506;2022-07-06T01:20:49;2.75;;;1.00;;
32637;SDS011;19045;52.268;10.506;2022-07-06T01:23:15;3.85;;;1.30;;
32637;SDS011;19045;52.268;10.506;2022-07-06T01:25:42;3.10;;;1.00;;
32637;SDS011;19045;52.268;10.506;2022-07-06T01:28:09;2.63;;;1.00;;
32637;SDS011;19045;52.268;10.506;2022-07-06T01:30:36;6.13;;;1.65;;
32637;SDS011;19045;52.268;10.506;2022-07-06T01:33:02;2.60;;;1.05;;
32637;SDS011;19045;52.268;10.506;2022-07-06T01:35:29;5.25;;;1.38;;
32637;SDS011;19045;52.268;10.506;2022-07-06T01:38:01;5.65;;;1.50;;
32637;SDS011;19045;52.268;10.506;2022-07-06T01:40:27;8.98;;;1.55;;
32637;SDS011;19045;52.268;10.506;2022-07-06T01:42:54;4.57;;;1.70;;
32637;SDS011;19045;52.268;10.506;2022-07-06T01:45:21;8.27;;;1.50;;
32637;SDS011;19045;52.268;10.506;2022-07-06T01:47:48;5.00;;;1.40;;
32637;SDS011;19045;52.268;10.506;2022-07-06T01:50:14;6.20;;;1.40;;
32637;SDS011;19045;52.268;10.506;2022-07-06T01:52:41;7.10;;;1.30;;
32637;SDS011;19045;52.268;10.506;2022-07-06T01:55:09;5.35;;;1.52;;
32637;SDS011;19045;52.268;10.506;2022-07-06T01:57:36;3.35;;;1.33;;
32637;SDS011;19045;52.268;10.506;2022-07-06T02:00:04;5.10;;;1.17;;
32637;SDS011;19045;52.268;10.506;2022-07-06T02:02:32;4.50;;;1.42;;
32637;SDS011;19045;52.268;10.506;2022-07-06T02:04:58;5.65;;;1.17;;
32637;SDS011;19045;52.268;10.506;2022-07-06T02:07:25;5.43;;;1.55;;
32637;SDS011;19045;52.268;10.506;2022-07-06T02:09:52;3.72;;;1.23;;
32637;SDS011;19045;52.268;10.506;2022-07-06T02:12:20;4.43;;;1.20;;
32637;SDS011;19045;52.268;10.506;2022-07-06T02:14:47;3.22;;;1.13;;
32637;SDS011;19045;52.268;10.506;2022-07-06T02:17:13;5.38;;;1.40;;
32637;SDS011;19045;52.268;10.506;2022-07-06T02:19:40;4.63;;;1.30;;
32637;SDS011;19045;52.268;10.506;2022-07-06T02:22:07;3.72;;;1.15;;
32637;SDS011;19045;52.268;10.506;2022-07-06T02:24:33;4.90;;;1.52;;
32637;SDS011;19045;52.268;10.506;2022-07-06T02:27:00;6.10;;;1.10;;
32637;SDS011;19045;52.268;10.506;2022-07-06T02:29:28;4.45;;;1.40;;
32637;SDS011;19045;52.268;10.506;2022-07-06T02:31:55;6.90;;;1.45;;
32637;SDS011;19045;52.268;10.506;2022-07-06T02:34:21;3.97;;;1.00;;
32637;SDS011;19045;52.268;10.506;2022-07-06T02:36:48;4.70;;;1.20;;
32637;SDS011;19045;52.268;10.506;2022-07-06T02:39:15;4.35;;;1.27;;
32637;SDS011;19045;52.268;10.506;2022-07-06T02:41:41;9.85;;;1.30;;
32637;SDS011;19045;52.268;10.506;2022-07-06T02:44:08;3.47;;;1.30;;
32637;SDS011;19045;52.268;10.506;2022-07-06T02:46:36;5.70;;;1.25;;
32637;SDS011;19045;52.268;10.506;2022-07-06T02:49:02;4.45;;;1.55;;
32637;SDS011;19045;52.268;10.506;2022-07-06T02:51:29;4.40;;;1.23;;
32637;SDS011;19045;52.268;10.506;2022-07-06T02:53:56;6.25;;;1.45;;
32637;SDS011;19045;52.268;10.506;2022-07-06T02:56:22;5.07;;;1.45;;
32637;SDS011;19045;52.268;10.506;2022-07-06T02:58:49;7.47;;;1.48;;
32637;SDS011;19045;52.268;10.506;2022-07-06T03:01:16;2.33;;;0.77;;
32637;SDS011;19045;52.268;10.506;2022-07-06T03:03:44;7.85;;;1.40;;
32637;SDS011;19045;52.268;10.506;2022-07-06T03:06:10;5.00;;;1.40;;
32637;SDS011;19045;52.268;10.506;2022-07-06T03:08:37;4.80;;;1.15;;
32637;SDS011;19045;52.268;10.506;2022-07-06T03:11:04;6.57;;;1.63;;
32637;SDS011;19045;52.268;10.506;2022-07-06T03:13:30;4.15;;;1.50;;
32637;SDS011;19045;52.268;10.506;2022-07-06T03:15:57;4.97;;;1.35;;
32637;SDS011;19045;52.268;10.506;2022-07-06T03:18:24;5.28;;;1.58;;
32637;SDS011;19045;52.268;10.506;2022-07-06T03:20:52;3.72;;;1.15;;
32637;SDS011;19045;52.268;10.506;2022-07-06T03:23:19;5.60;;;1.10;;
32637;SDS011;19045;52.268;10.506;2022-07-06T03:25:46;3.63;;;1.30;;
32637;SDS011;19045;52.268;10.506;2022-07-06T03:28:12;3.72;;;1.20;;
32637;SDS011;19045;52.268;10.506;2022-07-06T03:30:39;3.90;;;1.30;;
32637;SDS011;19045;52.268;10.506;2022-07-06T03:33:06;5.18;;;1.30;;
32637;SDS011;19045;52.268;10.506;2022-07-06T03:35:32;6.93;;;1.48;;
32637;SDS011;19045;52.268;10.506;2022-07-06T03:38:00;6.22;;;1.13;;
32637;SDS011;19045;52.268;10.506;2022-07-06T03:40:28;4.03;;;1.48;;
32637;SDS011;19045;52.268;10.506;2022-07-06T03:42:54;5.13;;;1.20;;
32637;SDS011;19045;52.268;10.506;2022-07-06T03:45:21;3.67;;;1.33;;
32637;SDS011;19045;52.268;10.506;2022-07-06T03:47:47;4.43;;;1.38;;
32637;SDS011;19045;52.268;10.506;2022-07-06T03:50:14;7.32;;;1.25;;
32637;SDS011;19045;52.268;10.506;2022-07-06T03:52:41;4.53;;;1.33;;
32637;SDS011;19045;52.268;10.506;2022-07-06T03:55:11;6.60;;;1.40;;
32637;SDS011;19045;52.268;10.506;2022-07-06T03:57:38;5.05;;;1.33;;
32637;SDS011;19045;52.268;10.506;2022-07-06T04:00:06;3.92;;;1.08;;
32637;SDS011;19045;52.268;10.506;2022-07-06T04:02:34;6.47;;;1.15;;
32637;SDS011;19045;52.268;10.506;2022-07-06T04:05:01;3.08;;;1.00;;
32637;SDS011;19045;52.268;10.506;2022-07-06T04:07:27;3.05;;;1.20;;
32637;SDS011;19045;52.268;10.506;2022-07-06T04:09:54;7.82;;;1.35;;
32637;SDS011;19045;52.268;10.506;2022-07-06T04:12:22;5.13;;;1.70;;
32637;SDS011;19045;52.268;10.506;2022-07-06T04:14:49;4.38;;;1.05;;
32637;SDS011;19045;52.268;10.506;2022-07-06T04:17:15;5.93;;;1.58;;
32637;SDS011;19045;52.268;10.506;2022-07-06T04:19:59;7.07;;;1.30;;
32637;SDS011;19045;52.268;10.506;2022-07-06T04:22:26;7.57;;;1.50;;
32637;SDS011;19045;52.268;10.506;2022-07-06T04:24:53;4.80;;;1.60;;
32637;SDS011;19045;52.268;10.506;2022-07-06T04:27:20;5.75;;;1.17;;
32637;SDS011;19045;52.268;10.506;2022-07-06T04:29:48;5.20;;;1.40;;
32637;SDS011;19045;52.268;10.506;2022-07-06T04:32:14;5.18;;;1.55;;
32637;SDS011;19045;52.268;10.506;2022-07-06T04:34:41;8.57;;;2.13;;
32637;SDS011;19045;52.268;10.506;2022-07-06T04:37:08;4.15;;;1.33;;
32637;SDS011;19045;52.268;10.506;2022-07-06T04:39:34;2.55;;;1.15;;
32637;SDS011;19045;52.268;10.506;2022-07-06T04:42:01;8.75;;;1.67;;
32637;SDS011;19045;52.268;10.506;2022-07-06T04:44:28;5.00;;;1.20;;
32637;SDS011;19045;52.268;10.506;2022-07-06T04:46:56;4.95;;;1.50;;
32637;SDS011;19045;52.268;10.506;2022-07-06T04:49:23;5.82;;;1.73;;
32637;SDS011;19045;52.268;10.506;2022-07-06T04:51:49;4.43;;;1.40;;
32637;SDS011;19045;52.268;10.506;2022-07-06T04:54:16;6.28;;;1.73;;
32637;SDS011;19045;52.268;10.506;2022-07-06T04:56:45;7.28;;;1.50;;
32637;SDS011;19045;52.268;10.506;2022-07-06T04:59:14;7.82;;;1.20;;
32637;SDS011;19045;52.268;10.506;2022-07-06T05:01:40;8.88;;;1.90;;
32637;SDS011;19045;52.268;10.506;2022-07-06T05:04:09;3.92;;;1.42;;
32637;SDS011;19045;52.268;10.506;2022-07-06T05:06:35;3.75;;;1.38;;
32637;SDS011;19045;52.268;10.506;2022-07-06T05:09:02;5.13;;;1.30;;
32637;SDS011;19045;52.268;10.506;2022-07-06T05:11:29;4.40;;;1.27;;
32637;SDS011;19045;52.268;10.506;2022-07-06T05:13:56;6.72;;;1.60;;
32637;SDS011;19045;52.268;10.506;2022-07-06T05:16:23;3.47;;;1.50;;
32637;SDS011;19045;52.268;10.506;2022-07-06T05:18:50;7.15;;;1.80;;
32637;SDS011;19045;52.268;10.506;2022-07-06T05:21:18;6.20;;;1.73;;
32637;SDS011;19045;52.268;10.506;2022-07-06T05:23:45;3.20;;;1.33;;
32637;SDS011;19045;52.268;10.506;2022-07-06T05:26:11;7.18;;;1.40;;
32637;SDS011;19045;52.268;10.506;2022-07-06T05:28:38;7.55;;;1.80;;
32637;SDS011;19045;52.268;10.506;2022-07-06T05:31:05;9.27;;;1.95;;
32637;SDS011;19045;52.268;10.506;2022-07-06T05:33:31;10.77;;;1.88;;
32637;SDS011;19045;52.268;10.506;2022-07-06T05:35:58;7.35;;;1.35;;
32637;SDS011;19045;52.268;10.506;2022-07-06T05:38:26;6.97;;;1.63;;
32637;SDS011;19045;52.268;10.506;2022-07-06T05:40:53;7.70;;;1.75;;
32637;SDS011;19045;52.268;10.506;2022-07-06T05:43:20;11.50;;;2.15;;
32637;SDS011;19045;52.268;10.506;2022-07-06T05:45:47;6.45;;;1.50;;
32637;SDS011;19045;52.268;10.506;2022-07-06T05:48:13;7.53;;;1.42;;
32637;SDS011;19045;52.268;10.506;2022-07-06T05:50:57;5.05;;;1.15;;
32637;SDS011;19045;52.268;10.506;2022-07-06T05:53:24;4.85;;;1.10;;
32637;SDS011;19045;52.268;10.506;2022-07-06T05:55:52;5.82;;;1.52;;
32637;SDS011;19045;52.268;10.506;2022-07-06T05:58:19;3.05;;;1.17;;
32637;SDS011;19045;52.268;10.506;2022-07-06T06:00:45;6.32;;;1.35;;
32637;SDS011;19045;52.268;10.506;2022-07-06T06:03:12;6.97;;;1.70;;
32637;SDS011;19045;52.268;10.506;2022-07-06T06:05:39;9.32;;;1.40;;
32637;SDS011;19045;52.268;10.506;2022-07-06T06:08:05;5.47;;;1.83;;
32637;SDS011;19045;52.268;10.506;2022-07-06T06:10:32;9.43;;;1.40;;
32637;SDS011;19045;52.268;10.506;2022-07-06T06:13:00;7.95;;;2.00;;
32637;SDS011;19045;52.268;10.506;2022-07-06T06:15:27;7.97;;;1.67;;
32637;SDS011;19045;52.268;10.506;2022-07-06T06:17:54;8.35;;;1.50;;
32637;SDS011;19045;52.268;10.506;2022-07-06T06:20:21;7.28;;;1.85;;
32637;SDS011;19045;52.268;10.506;2022-07-06T06:22:48;6.97;;;1.50;;
32637;SDS011;19045;52.268;10.506;2022-07-06T06:25:17;6.03;;;1.63;;
32637;SDS011;19045;52.268;10.506;2022-07-06T06:27:44;9.88;;;1.77;;
32637;SDS011;19045;52.268;10.506;2022-07-06T06:30:13;4.90;;;1.48;;
32637;SDS011;19045;52.268;10.506;2022-07-06T06:32:40;4.95;;;1.25;;
32637;SDS011;19045;52.268;10.506;2022-07-06T06:35:07;7.47;;;1.60;;
32637;SDS011;19045;52.268;10.506;2022-07-06T06:37:34;10.68;;;1.65;;
32637;SDS011;19045;52.268;10.506;2022-07-06T06:40:01;8.23;;;1.40;;
32637;SDS011;19045;52.268;10.506;2022-07-06T06:42:28;5.07;;;1.25;;
32637;SDS011;19045;52.268;10.506;2022-07-06T06:44:55;7.22;;;1.92;;
32637;SDS011;19045;52.268;10.506;2022-07-06T06:47:23;8.43;;;2.05;;
32637;SDS011;19045;52.268;10.506;2022-07-06T06:49:50;7.28;;;1.67;;
32637;SDS011;19045;52.268;10.506;2022-07-06T06:52:17;8.35;;;1.75;;
32637;SDS011;19045;52.268;10.506;2022-07-06T06:54:43;7.65;;;1.60;;
32637;SDS011;19045;52.268;10.506;2022-07-06T06:57:10;5.68;;;1.42;;
32637;SDS011;19045;52.268;10.506;2022-07-06T06:59:37;10.60;;;1.58;;
32637;SDS011;19045;52.268;10.506;2022-07-06T07:02:03;3.78;;;1.20;;
32637;SDS011;19045;52.268;10.506;2022-07-06T07:04:32;5.63;;;1.40;;
32637;SDS011;19045;52.268;10.506;2022-07-06T07:06:58;9.30;;;1.40;;
32637;SDS011;19045;52.268;10.506;2022-07-06T07:09:25;6.72;;;1.38;;
32637;SDS011;19045;52.268;10.506;2022-07-06T07:11:51;6.07;;;1.02;;
32637;SDS011;19045;52.268;10.506;2022-07-06T07:14:20;4.75;;;1.15;;
32637;SDS011;19045;52.268;10.506;2022-07-06T07:16:47;5.70;;;1.55;;
32637;SDS011;19045;52.268;10.506;2022-07-06T07:19:13;4.80;;;1.13;;
32637;SDS011;19045;52.268;10.506;2022-07-06T07:21:41;4.20;;;1.13;;
32637;SDS011;19045;52.268;10.506;2022-07-06T07:24:08;8.80;;;1.55;;
32637;SDS011;19045;52.268;10.506;2022-07-06T07:26:35;6.07;;;1.05;;
32637;SDS011;19045;52.268;10.506;2022-07-06T07:29:02;5.03;;;1.20;;
32637;SDS011;19045;52.268;10.506;2022-07-06T07:31:28;2.50;;;0.95;;
32637;SDS011;19045;52.268;10.506;2022-07-06T07:33:55;7.55;;;1.35;;
32637;SDS011;19045;52.268;10.506;2022-07-06T07:36:23;5.40;;;0.85;;
32637;SDS011;19045;52.268;10.506;2022-07-06T07:38:52;6.95;;;0.77;;
32637;SDS011;19045;52.268;10.506;2022-07-06T07:41:18;5.53;;;1.00;;
32637;SDS011;19045;52.268;10.506;2022-07-06T07:43:45;5.22;;;1.10;;
32637;SDS011;19045;52.268;10.506;2022-07-06T07:46:12;2.78;;;1.10;;
32637;SDS011;19045;52.268;10.506;2022-07-06T07:48:39;5.53;;;1.17;;
32637;SDS011;19045;52.268;10.506;2022-07-06T07:51:05;5.45;;;0.70;;
32637;SDS011;19045;52.268;10.506;2022-07-06T07:53:32;3.90;;;0.88;;
32637;SDS011;19045;52.268;10.506;2022-07-06T07:56:01;2.97;;;0.65;;
32637;SDS011;19045;52.268;10.506;2022-07-06T07:58:28;4.00;;;1.33;;
32637;SDS011;19045;52.268;10.506;2022-07-06T08:00:54;3.00;;;0.85;;
32637;SDS011;19045;52.268;10.506;2022-07-06T08:03:21;3.75;;;1.10;;
32637;SDS011;19045;52.268;10.506;2022-07-06T08:05:48;7.50;;;1.00;;
32637;SDS011;19045;52.268;10.506;2022-07-06T08:08:15;8.60;;;1.10;;
32637;SDS011;19045;52.268;10.506;2022-07-06T08:10:42;4.72;;;0.90;;
32637;SDS011;19045;52.268;10.506;2022-07-06T08:13:11;5.57;;;1.00;;
32637;SDS011;19045;52.268;10.506;2022-07-06T08:15:39;5.30;;;0.95;;
32637;SDS011;19045;52.268;10.506;2022-07-06T08:18:06;7.55;;;1.17;;
32637;SDS011;19045;52.268;10.506;2022-07-06T08:20:35;6.80;;;1.10;;
32637;SDS011;19045;52.268;10.506;2022-07-06T08:23:02;2.78;;;0.95;;
32637;SDS011;19045;52.268;10.506;2022-07-06T08:25:29;6.30;;;1.23;;
32637;SDS011;19045;52.268;10.506;2022-07-06T08:27:56;2.20;;;1.10;;
32637;SDS011;19045;52.268;10.506;2022-07-06T08:30:25;3.53;;;1.00;;
32637;SDS011;19045;52.268;10.506;2022-07-06T08:32:51;3.90;;;0.90;;
32637;SDS011;19045;52.268;10.506;2022-07-06T08:35:18;6.20;;;1.38;;
32637;SDS011;19045;52.268;10.506;2022-07-06T08:37:45;2.13;;;0.88;;
32637;SDS011;19045;52.268;10.506;2022-07-06T08:40:12;6.05;;;1.23;;
32637;SDS011;19045;52.268;10.506;2022-07-06T08:42:38;2.47;;;0.80;;
32637;SDS011;19045;52.268;10.506;2022-07-06T08:45:06;4.90;;;1.08;;
32637;SDS011;19045;52.268;10.506;2022-07-06T08:47:36;2.78;;;0.80;;
32637;SDS011;19045;52.268;10.506;2022-07-06T08:50:04;5.25;;;1.02;;
32637;SDS011;19045;52.268;10.506;2022-07-06T08:52:31;4.35;;;0.82;;
32637;SDS011;19045;52.268;10.506;2022-07-06T08:54:58;2.90;;;0.90;;
32637;SDS011;19045;52.268;10.506;2022-07-06T08:57:26;5.43;;;0.80;;
32637;SDS011;19045;52.268;10.506;2022-07-06T08:59:53;5.35;;;1.50;;
32637;SDS011;19045;52.268;10.506;2022-07-06T09:02:21;5.03;;;1.30;;
32637;SDS011;19045;52.268;10.506;2022-07-06T09:04:52;5.30;;;1.10;;
32637;SDS011;19045;52.268;10.506;2022-07-06T09:07:22;5.68;;;1.38;;
32637;SDS011;19045;52.268;10.506;2022-07-06T09:09:53;5.93;;;1.02;;
32637;SDS011;19045;52.268;10.506;2022-07-06T09:12:20;4.95;;;0.90;;
32637;SDS011;19045;52.268;10.506;2022-07-06T09:14:47;4.28;;;0.98;;
32637;SDS011;19045;52.268;10.506;2022-07-06T09:17:14;3.15;;;0.77;;
32637;SDS011;19045;52.268;10.506;2022-07-06T09:19:40;3.88;;;1.05;;
32637;SDS011;19045;52.268;10.506;2022-07-06T09:22:09;5.43;;;0.98;;
32637;SDS011;19045;52.268;10.506;2022-07-06T09:24:37;3.03;;;0.73;;
32637;SDS011;19045;52.268;10.506;2022-07-06T09:27:15;8.40;;;1.33;;
32637;SDS011;19045;52.268;10.506;2022-07-06T09:29:43;4.47;;;0.85;;
32637;SDS011;19045;52.268;10.506;2022-07-06T09:32:11;2.42;;;0.63;;
32637;SDS011;19045;52.268;10.506;2022-07-06T09:34:40;1.88;;;0.77;;
32637;SDS011;19045;52.268;10.506;2022-07-06T09:37:09;3.85;;;0.80;;
32637;SDS011;19045;52.268;10.506;2022-07-06T09:39:37;2.15;;;0.63;;
32637;SDS011;19045;52.268;10.506;2022-07-06T09:42:04;2.72;;;0.50;;
32637;SDS011;19045;52.268;10.506;2022-07-06T09:44:33;2.53;;;0.85;;
32637;SDS011;19045;52.268;10.506;2022-07-06T09:47:02;4.55;;;0.70;;
32637;SDS011;19045;52.268;10.506;2022-07-06T09:49:30;3.45;;;0.70;;
32637;SDS011;19045;52.268;10.506;2022-07-06T09:51:58;2.22;;;0.50;;
32637;SDS011;19045;52.268;10.506;2022-07-06T09:54:28;3.55;;;0.68;;
32637;SDS011;19045;52.268;10.506;2022-07-06T09:56:55;3.78;;;0.73;;
32637;SDS011;19045;52.268;10.506;2022-07-06T09:59:23;3.30;;;0.77;;
32637;SDS011;19045;52.268;10.506;2022-07-06T10:01:51;2.17;;;0.57;;
32637;SDS011;19045;52.268;10.506;2022-07-06T10:04:20;4.43;;;0.95;;
32637;SDS011;19045;52.268;10.506;2022-07-06T10:06:47;7.97;;;0.93;;
32637;SDS011;19045;52.268;10.506;2022-07-06T10:09:14;4.18;;;0.63;;
32637;SDS011;19045;52.268;10.506;2022-07-06T10:11:44;2.15;;;0.73;;
32637;SDS011;19045;52.268;10.506;2022-07-06T10:14:14;4.35;;;0.80;;
32637;SDS011;19045;52.268;10.506;2022-07-06T10:16:43;1.85;;;0.55;;
32637;SDS011;19045;52.268;10.506;2022-07-06T10:19:12;4.28;;;0.75;;
32637;SDS011;19045;52.268;10.506;2022-07-06T10:21:40;2.28;;;0.68;;
32637;SDS011;19045;52.268;10.506;2022-07-06T10:24:08;2.72;;;0.60;;
32637;SDS011;19045;52.268;10.506;2022-07-06T10:26:36;2.70;;;0.55;;
32637;SDS011;19045;52.268;10.506;2022-07-06T10:29:05;3.20;;;0.57;;
32637;SDS011;19045;52.268;10.506;2022-07-06T10:31:34;4.10;;;0.63;;
32637;SDS011;19045;52.268;10.506;2022-07-06T10:34:04;1.65;;;0.30;;
32637;SDS011;19045;52.268;10.506;2022-07-06T10:36:36;3.55;;;0.90;;
32637;SDS011;19045;52.268;10.506;2022-07-06T10:39:04;3.83;;;0.90;;
32637;SDS011;19045;52.268;10.506;2022-07-06T10:41:52;3.83;;;0.63;;
32637;SDS011;19045;52.268;10.506;2022-07-06T10:44:19;7.95;;;1.10;;
32637;SDS011;19045;52.268;10.506;2022-07-06T10:46:51;1.38;;;0.50;;
32637;SDS011;19045;52.268;10.506;2022-07-06T10:49:19;1.93;;;0.67;;
32637;SDS011;19045;52.268;10.506;2022-07-06T10:51:47;3.97;;;0.68;;
32637;SDS011;19045;52.268;10.506;2022-07-06T10:54:16;4.18;;;0.80;;
32637;SDS011;19045;52.268;10.506;2022-07-06T10:56:44;1.67;;;0.50;;
32637;SDS011;19045;52.268;10.506;2022-07-06T10:59:11;6.10;;;0.70;;
32637;SDS011;19045;52.268;10.506;2022-07-06T11:01:40;2.20;;;0.45;;
32637;SDS011;19045;52.268;10.506;2022-07-06T11:04:30;4.00;;;0.68;;
32637;SDS011;19045;52.268;10.506;2022-07-06T11:06:57;6.47;;;0.68;;
32637;SDS011;19045;52.268;10.506;2022-07-06T11:09:33;2.80;;;0.73;;
32637;SDS011;19045;52.268;10.506;2022-07-06T11:12:07;6.85;;;0.95;;
32637;SDS011;19045;52.268;10.506;2022-07-06T11:14:38;1.35;;;0.60;;
32637;SDS011;19045;52.268;10.506;2022-07-06T11:17:06;5.32;;;0.77;;
32637;SDS011;19045;52.268;10.506;2022-07-06T11:19:36;3.50;;;0.65;;
32637;SDS011;19045;52.268;10.506;2022-07-06T11:22:05;4.30;;;0.60;;
32637;SDS011;19045;52.268;10.506;2022-07-06T11:24:33;4.18;;;0.55;;
32637;SDS011;19045;52.268;10.506;2022-07-06T11:27:01;3.33;;;0.77;;
32637;SDS011;19045;52.268;10.506;2022-07-06T11:29:29;7.78;;;0.85;;
32637;SDS011;19045;52.268;10.506;2022-07-06T11:31:57;2.65;;;0.40;;
32637;SDS011;19045;52.268;10.506;2022-07-06T11:34:27;6.93;;;0.70;;
32637;SDS011;19045;52.268;10.506;2022-07-06T11:36:55;4.22;;;0.80;;
32637;SDS011;19045;52.268;10.506;2022-07-06T11:39:25;2.70;;;0.50;;
32637;SDS011;19045;52.268;10.506;2022-07-06T11:41:53;1.83;;;0.40;;
32637;SDS011;19045;52.268;10.506;2022-07-06T11:44:20;1.85;;;0.50;;
32637;SDS011;19045;52.268;10.506;2022-07-06T11:46:47;6.70;;;0.80;;
32637;SDS011;19045;52.268;10.506;2022-07-06T11:49:14;3.30;;;0.80;;
32637;SDS011;19045;52.268;10.506;2022-07-06T11:51:44;2.72;;;0.60;;
32637;SDS011;19045;52.268;10.506;2022-07-06T11:54:12;1.40;;;0.40;;
32637;SDS011;19045;52.268;10.506;2022-07-06T11:56:45;3.60;;;0.40;;
32637;SDS011;19045;52.268;10.506;2022-07-06T11:59:12;2.08;;;0.45;;
32637;SDS011;19045;52.268;10.506;2022-07-06T12:01:41;1.70;;;0.50;;
32637;SDS011;19045;52.268;10.506;2022-07-06T12:04:09;1.95;;;0.75;;
32637;SDS011;19045;52.268;10.506;2022-07-06T12:06:37;2.33;;;0.57;;
32637;SDS011;19045;52.268;10.506;2022-07-06T12:09:05;5.25;;;0.93;;
32637;SDS011;19045;52.268;10.506;2022-07-06T12:11:32;1.92;;;0.60;;
32637;SDS011;19045;52.268;10.506;2022-07-06T12:14:00;3.17;;;0.80;;
32637;SDS011;19045;52.268;10.506;2022-07-06T12:16:29;2.47;;;0.70;;
32637;SDS011;19045;52.268;10.506;2022-07-06T12:18:58;2.30;;;0.63;;
32637;SDS011;19045;52.268;10.506;2022-07-06T12:21:25;4.80;;;0.63;;
32637;SDS011;19045;52.268;10.506;2022-07-06T12:23:53;3.85;;;0.70;;
32637;SDS011;19045;52.268;10.506;2022-07-06T12:26:25;2.35;;;0.40;;
32637;SDS011;19045;52.268;10.506;2022-07-06T12:29:01;3.13;;;0.50;;
32637;SDS011;19045;52.268;10.506;2022-07-06T12:31:30;3.00;;;0.60;;
32637;SDS011;19045;52.268;10.506;2022-07-06T12:33:58;3.33;;;0.60;;
32637;SDS011;19045;52.268;10.506;2022-07-06T12:36:25;2.65;;;0.73;;
32637;SDS011;19045;52.268;10.506;2022-07-06T12:38:52;8.98;;;0.93;;
32637;SDS011;19045;52.268;10.506;2022-07-06T12:41:27;3.17;;;0.63;;
32637;SDS011;19045;52.268;10.506;2022-07-06T12:44:05;5.47;;;0.75;;
32637;SDS011;19045;52.268;10.506;2022-07-06T12:46:34;1.63;;;0.68;;
32637;SDS011;19045;52.268;10.506;2022-07-06T12:49:16;3.40;;;1.00;;
32637;SDS011;19045;52.268;10.506;2022-07-06T12:51:48;2.20;;;0.68;;
32637;SDS011;19045;52.268;10.506;2022-07-06T12:54:19;3.75;;;0.80;;
32637;SDS011;19045;52.268;10.506;2022-07-06T12:56:57;3.13;;;0.70;;
32637;SDS011;19045;52.268;10.506;2022-07-06T12:59:36;2.45;;;0.57;;
32637;SDS011;19045;52.268;10.506;2022-07-06T13:02:04;2.92;;;0.80;;
32637;SDS011;19045;52.268;10.506;2022-07-06T13:04:33;3.28;;;0.68;;
32637;SDS011;19045;52.268;10.506;2022-07-06T13:07:00;1.30;;;0.30;;
32637;SDS011;19045;52.268;10.506;2022-07-06T13:09:27;2.88;;;0.70;;
32637;SDS011;19045;52.268;10.506;2022-07-06T13:11:56;2.13;;;0.70;;
32637;SDS011;19045;52.268;10.506;2022-07-06T13:14:23;1.77;;;0.50;;
32637;SDS011;19045;52.268;10.506;2022-07-06T13:16:50;3.30;;;1.00;;
32637;SDS011;19045;52.268;10.506;2022-07-06T13:19:16;3.95;;;0.90;;
32637;SDS011;19045;52.268;10.506;2022-07-06T13:21:44;3.05;;;0.80;;
32637;SDS011;19045;52.268;10.506;2022-07-06T13:24:13;8.13;;;1.10;;
32637;SDS011;19045;52.268;10.506;2022-07-06T13:26:40;3.00;;;0.60;;
32637;SDS011;19045;52.268;10.506;2022-07-06T13:29:08;8.07;;;0.95;;
32637;SDS011;19045;52.268;10.506;2022-07-06T13:31:36;4.38;;;0.70;;
32637;SDS011;19045;52.268;10.506;2022-07-06T13:34:04;4.82;;;1.15;;
32637;SDS011;19045;52.268;10.506;2022-07-06T13:36:31;1.85;;;0.50;;
32637;SDS011;19045;52.268;10.506;2022-07-06T13:38:58;2.15;;;1.00;;
32637;SDS011;19045;52.268;10.506;2022-07-06T13:41:25;4.35;;;0.60;;
32637;SDS011;19045;52.268;10.506;2022-07-06T13:43:51;4.43;;;0.70;;
32637;SDS011;19045;52.268;10.506;2022-07-06T13:46:19;4.75;;;0.63;;
32637;SDS011;19045;52.268;10.506;2022-07-06T13:48:47;4.45;;;0.65;;
32637;SDS011;19045;52.268;10.506;2022-07-06T13:51:14;3.60;;;0.52;;
32637;SDS011;19045;52.268;10.506;2022-07-06T13:53:40;4.60;;;0.65;;
32637;SDS011;19045;52.268;10.506;2022-07-06T13:56:07;6.13;;;0.60;;
32637;SDS011;19045;52.268;10.506;2022-07-06T13:58:34;1.35;;;0.40;;
32637;SDS011;19045;52.268;10.506;2022-07-06T14:01:01;3.05;;;0.60;;
32637;SDS011;19045;52.268;10.506;2022-07-06T14:03:29;3.63;;;0.60;;
32637;SDS011;19045;52.268;10.506;2022-07-06T14:05:56;8.90;;;0.70;;
32637;SDS011;19045;52.268;10.506;2022-07-06T14:08:23;1.65;;;0.65;;
32637;SDS011;19045;52.268;10.506;2022-07-06T14:10:51;1.33;;;0.45;;
32637;SDS011;19045;52.268;10.506;2022-07-06T14:13:18;2.97;;;0.47;;
32637;SDS011;19045;52.268;10.506;2022-07-06T14:15:45;1.35;;;0.30;;
32637;SDS011;19045;52.268;10.506;2022-07-06T14:18:12;4.38;;;0.50;;
32637;SDS011;19045;52.268;10.506;2022-07-06T14:20:41;3.05;;;0.50;;
32637;SDS011;19045;52.268;10.506;2022-07-06T14:23:07;4.55;;;0.47;;
32637;SDS011;19045;52.268;10.506;2022-07-06T14:25:34;2.53;;;0.50;;
32637;SDS011;19045;52.268;10.506;2022-07-06T14:28:01;0.85;;;0.40;;
32637;SDS011;19045;52.268;10.506;2022-07-06T14:30:28;3.38;;;0.47;;
32637;SDS011;19045;52.268;10.506;2022-07-06T14:32:55;6.00;;;0.40;;
32637;SDS011;19045;52.268;10.506;2022-07-06T14:35:21;2.85;;;0.40;;
32637;SDS011;19045;52.268;10.506;2022-07-06T14:37:51;3.47;;;0.57;;